Historyczne dane pomiarowe

Dodano dane terminowe – wersja testowa.

Dane z okresu 1951-2019

Wersja bazy: 1.34 [2019-03-16, lista zmian], aktualizacja planowana na 2019-04-15

Dane meteo z obszaru Polski uzyskane na podstawie danych udostępnionych przez Instytut Meteorologii i Gospodarki Wodnej – Państwowy Instytut Badawczy.

 

Wybierz Datę:    

       

TemperaturaWilgotnośćWiatrCiśnienieOpadyŚniegCzas trwania zjawisk
 Stacja t tx tn tng RH VA  wxwx mslp ppp RRR   cm mm wxwxwxwxwxwxwx
1994-08-14 13.9 16.6 10.4 8.7 71.0- 5.3 5.3---- 3.2------------
1994-08-13 15.7 21.1 13.7 14.0 90.5- 7.7 6.3---- 5.6------------
1994-08-12 17.5 21.0 15.8 15.0 92.5- 7.3 1.7---- 0.0------------
1994-08-11 18.6 24.2 17.6 15.6 87.8- 8.0 3.7---- 10.7------------
1994-08-10 20.9 27.8 14.5 12.5 72.3- 5.7 1.3---- 0.0------------
1994-08-09 20.5 25.5 18.5 17.1 91.0- 6.0 0.0---- 2.0------------
1994-08-08 20.4 25.8 17.2 11.7 85.3- 7.3 0.3---- 1.8------------
1994-08-07 23.0 27.8 19.4 16.6 65.8- 7.0 1.3---- 6.8------------
1994-08-06 25.4 30.6 19.0 14.5 60.8- 3.3 2.7---- 0.0------------
1994-08-05 24.2 32.6 14.1 11.5 62.5- 1.7 1.7---- 0.0------------
1994-08-04 24.1 28.0 17.4 14.0 63.0- 1.7 1.3---- 0.0------------
1994-08-03 24.5 29.5 18.7 17.6 65.5- 0.7 3.0---- 0.0------------
1994-08-02 26.6 32.0 21.0 16.8 59.8- 6.0 2.0---- 1.5------------
1994-08-01 28.0 36.5 19.0 15.3 46.5- 4.0 2.3---- 1.5------------
1994-07-31 27.9 36.6 20.5 15.2 47.3- 2.0 2.7---- 0.0------------
1994-07-30 26.0 36.5 16.6 13.2 48.3- 1.7 1.0---- 0.0------------
1994-07-29 27.5 36.0 18.5 14.5 39.3- 0.3 1.0---- 0.0------------
1994-07-28 24.9 34.0 15.9 16.1 53.0- 1.3 1.3---- 0.0------------
1994-07-27 26.7 35.0 17.1 14.2 45.5- 4.0 0.0---- 0.0------------
1994-07-26 26.6 34.4 18.7 14.8 45.0- 2.7 0.3---- 0.0------------
1994-07-25 26.3 33.4 17.4 12.5 43.0- 1.3 1.7---- 0.0------------
1994-07-24 24.7 30.8 16.2 12.2 43.3- 0.7 2.0---- 0.0------------
1994-07-23 23.2 30.1 12.5 9.4 50.8- 2.3 2.0---- 0.0------------
1994-07-22 21.9 29.0 13.6 10.1 49.8- 2.7 3.0---- 0.0------------
1994-07-21 20.9 27.1 11.6 8.5 48.0- 0.0 1.0---- 0.0------------
1994-07-20 19.0 24.5 11.4 9.8 51.3- 2.0 3.3---- 0.0------------
1994-07-19 18.4 23.8 13.3 12.0 55.5- 4.3 4.3---- 0.0------------
1994-07-18 20.0 25.0 15.5 14.5 74.5- 3.3 2.3---- 0.0------------
1994-07-17 21.8 28.1 17.2 14.7 83.0- 4.7 0.3---- 8.6------------
1994-07-16 24.1 28.0 18.0 15.0 70.3- 3.3 2.7---- 0.0------------
1994-07-15 24.5 30.5 17.9 15.3 59.0- 4.3 2.0---- 0.0------------
1994-07-14 25.0 31.2 15.5 12.7 54.0- 3.0 1.0---- 0.0------------
1994-07-13 23.3 29.6 17.8 14.5 55.0- 3.0 3.0---- 0.0------------
1994-07-12 22.4 27.5 17.3 10.5 66.0- 2.7 2.3---- 0.0------------
1994-07-11 22.2 27.7 15.2 12.3 59.3- 2.0 4.3---- 0.0------------
1994-07-10 19.4 24.1 12.5 12.5 73.0- 3.3 1.3---- 0.0------------
1994-07-09 16.9 22.0 12.4 12.5 86.0- 6.7 2.0---- 7.0------------
1994-07-08 14.1 19.2 12.9 13.0 92.0- 7.7 5.7---- 91.5------------
1994-07-07 18.9 27.5 10.9 8.4 66.3- 6.0 2.7---- 9.3------------
1994-07-06 20.4 26.5 14.1 10.7 64.8- 4.3 2.3---- 0.0------------
1994-07-05 18.9 25.2 14.4 12.9 74.8- 7.3 2.0---- 0.6------------
1994-07-04 22.2 29.5 13.9 11.0 54.5- 2.0 3.0---- 0.0------------
1994-07-03 21.7 28.0 11.9 9.0 50.8- 4.7 2.3---- 0.0------------
1994-07-02 19.5 25.2 11.4 9.0 55.0- 6.7 3.0---- 0.0------------
1994-07-01 18.0 24.5 10.1 7.6 55.8- 6.7 1.3---- 0.0------------
1994-06-30 20.7 29.0 18.5 16.6 75.3- 6.0 2.3---- 0.5------------
1994-06-29 26.4 33.7 18.0 16.0 63.0- 3.3 0.3---- 6.7------------
1994-06-28 23.7 30.0 17.9 16.1 67.8- 0.0 2.3---- 0.0------------
1994-06-27 22.8 30.7 13.4 12.0 68.3- 2.0 1.7---- 0.0------------
1994-06-26 22.6 31.6 12.1 6.9 55.8- 2.0 2.3---- 0.0------------
1994-06-25 18.3 25.0 6.1 2.0 49.5- 0.0 3.7---- 0.0------------
1994-06-24 14.7 21.1 5.3 2.2 59.5- 1.0 3.7---- 0.0------------
1994-06-23 16.7 21.3 12.6 9.5 52.8- 2.3 6.3---- 0.0------------
1994-06-22 18.7 25.2 13.3 10.0 76.8- 6.3 3.7---- 0.0------------
1994-06-21 16.5 23.2 7.1 4.2 63.3- 2.3 1.3---- 0.0------------
1994-06-20 17.6 21.1 15.2 12.3 68.3- 5.3 3.7---- 0.0------------
1994-06-19 17.4 23.6 11.9 10.4 75.3- 6.0 5.0---- 0.0------------
1994-06-18 13.2 18.7 4.5 0.9 75.5- 8.0 3.0---- 7.5------------
1994-06-17 11.4 14.1 8.5 6.6 68.8- 6.7 5.7---- 0.0------------
1994-06-16 11.7 18.0 8.5 7.6 82.3- 8.0 3.0---- 1.6------------
1122.7 ms

 

Źródłem pochodzenia danych jest Instytut Meteorologii i Gospodarki Wodnej – Państwowy Instytut Badawczy. Dane Instytutu Meteorologii i Gospodarki Wodnej – Państwowego Instytutu Badawczego zostały przetworzone.

Dane źródłowe można odnaleźć na stronie https://dane.imgw.pl